Latest Weather Observations for Sydney - Observatory Hill

IDN60801

Issued at 8:32 pm EST Monday 30 May 2016 (issued every 30 minutes, with the page automatically refreshed every 10 minutes)

About weather observations | Map of weather stations | Latest weather observations for NSW | Other Formats
Station Details ID: 066062 Name: SYDNEY (OBSERVATORY HILL) Lat: -33.86 Lon: 151.21 Height: 39.0 m
Data from the previous 72 hours. | See also: Recent months at Sydney - Observatory Hill

* Apparent temperature (App Temp) for Sydney - Observatory Hill is calculated using temperature observations collected at Sydney - Observatory Hill and wind observations collected at Fort Denison, as wind observations are not currently provided for Sydney - Observatory Hill.

Date/Time
EST
Temp
°C
App
Temp
°C
Dew
Point
Rel
Hum
%
Delta-T
°C
Wind Press
QNH
hPa
Press
MSL
hPa
Rain
since 9 am
mm
Dir
 
Spd
km/h
Gust
km/h
Spd
kts
Gust
kts
30/08:30pm 12.7 10.3 7.2 69 2.6 SW 9 - 5 - 1026.9 1026.8 0.0
30/08:00pm 12.9 10.6 7.4 69 2.7 SW 9 - 5 - 1026.9 1026.8 0.0
30/07:30pm 13.5 12.1 7.1 65 3.1 SW 4 - 2 - 1026.6 1026.5 0.0
30/07:00pm 14.6 12.5 5.7 55 4.2 SSW 6 - 3 - 1026.3 1026.2 0.0
30/06:30pm 14.6 11.9 5.4 54 4.4 SSW 9 - 5 - 1026.1 1026.0 0.0
30/06:00pm 15.1 12.7 5.3 52 4.6 SSW 7 - 4 - 1025.9 1025.8 0.0
30/05:30pm 15.1 12.6 4.8 50 4.8 S 7 - 4 - 1025.6 1025.5 0.0
30/05:00pm 15.5 12.5 3.9 46 5.3 SSE 9 - 5 - 1025.2 1025.1 0.0
30/04:30pm 15.8 11.8 2.6 41 5.9 SE 13 - 7 - 1024.9 1024.8 0.0
30/04:00pm 16.5 12.6 1.4 36 6.6 SSE 11 - 6 - 1024.6 1024.5 0.0
30/03:30pm 17.3 13.0 0.9 33 7.2 S 13 - 7 - 1024.4 1024.3 0.0
30/03:00pm 19.1 15.6 1.1 30 8.0 WSW 9 - 5 - 1024.2 1024.1 0.0
30/02:30pm 19.4 17.0 1.9 31 8.0 E 4 - 2 - 1024.1 1024.0 0.0
30/02:00pm 18.9 16.5 1.9 32 7.7 WNW 4 - 2 - 1024.0 1023.9 0.0
30/01:30pm 18.8 15.7 3.4 36 7.2 WNW 9 - 5 - 1024.1 1024.0 0.0
30/01:00pm 18.0 14.6 3.9 39 6.6 WNW 11 - 6 - 1024.2 1024.1 0.0
30/12:30pm 17.1 13.7 3.8 41 6.2 WNW 11 - 6 - 1024.4 1024.3 0.0
30/12:00pm 15.0 10.9 4.1 48 5.0 WNW 15 - 8 - 1024.8 1024.7 0.0
30/11:30am 14.0 9.4 3.5 49 4.7 WNW 17 - 9 - 1025.2 1025.1 0.0
30/11:00am 13.5 8.3 3.8 52 4.4 WNW 20 - 11 - 1025.6 1025.5 0.0
30/10:30am 11.9 6.6 2.9 54 3.9 W 20 - 11 - 1025.8 1025.7 0.0
30/10:00am 11.3 5.9 2.6 55 3.7 W 20 - 11 - 1025.9 1025.8 0.0
30/09:30am 10.4 4.7 2.7 59 3.3 W 22 - 12 - 1025.8 1025.7 0.0
30/09:00am 9.5 3.4 2.6 62 2.9 W 24 - 13 - 1025.6 1025.5 0.2
30/08:30am 9.0 2.8 1.9 61 3.0 W 24 - 13 - 1025.4 1025.3 0.2
30/08:00am 8.3 1.7 2.1 65 2.6 W 26 - 14 - 1025.1 1025.0 0.2
30/07:30am 8.2 2.0 2.0 65 2.6 W 24 - 13 - 1024.7 1024.6 0.2
30/07:00am 7.3 0.7 1.8 68 2.2 W 26 - 14 - 1024.4 1024.3 0.2
30/06:30am 7.5 -0.3 1.8 67 2.3 W 32 - 17 - 1023.9 1023.8 0.2
30/06:00am 7.5 0.4 1.6 66 2.4 W 28 - 15 - 1023.6 1023.5 0.2
30/05:30am 7.6 1.3 1.7 66 2.4 W 24 - 13 - 1023.2 1023.1 0.2
30/05:00am 7.9 2.0 1.7 65 2.5 W 22 - 12 - 1022.8 1022.7 0.2
30/04:30am 8.0 1.3 1.6 64 2.6 W 26 - 14 - 1022.5 1022.4 0.2
30/04:00am 8.4 2.5 1.6 62 2.8 W 22 - 12 - 1022.1 1022.0 0.2
30/03:30am 8.6 2.3 1.7 62 2.8 W 24 - 13 - 1022.1 1022.0 0.2
30/03:00am 8.7 2.0 1.6 61 2.9 W 26 - 14 - 1021.9 1021.8 0.2
30/02:30am 9.1 3.2 1.5 59 3.1 W 22 - 12 - 1022.0 1021.9 0.2
30/02:00am 9.3 3.3 1.2 57 3.3 W 22 - 12 - 1021.9 1021.8 0.2
30/01:30am 9.4 3.1 1.6 58 3.2 W 24 - 13 - 1021.8 1021.7 0.2
30/01:00am 9.6 3.7 1.8 58 3.2 W 22 - 12 - 1021.5 1021.4 0.2
30/12:30am 9.8 3.1 1.7 57 3.4 W 26 - 14 - 1021.4 1021.3 0.2
30/12:00am 10.3 3.3 1.7 55 3.6 W 28 - 15 - 1021.4 1021.3 0.2
 
Date/Time
EST
Temp
°C
App
Temp
°C
Dew
Point
Rel
Hum
%
Delta-T
°C
Wind Press
QNH
hPa
Press
MSL
hPa
Rain
since 9 am
mm
Dir
 
Spd
km/h
Gust
km/h
Spd
kts
Gust
kts
29/11:30pm 10.6 4.3 1.7 54 3.7 WSW 24 - 13 - 1021.2 1021.1 0.2
29/11:00pm 11.5 5.2 1.5 50 4.2 SW 24 - 13 - 1020.9 1020.8 0.2
29/10:30pm 12.2 5.9 1.5 48 4.6 SW 24 - 13 - 1021.0 1020.9 0.2
29/10:00pm 12.2 6.6 1.5 48 4.5 WSW 20 - 11 - 1020.9 1020.8 0.2
29/09:30pm 12.3 7.3 1.6 48 4.6 WSW 17 - 9 - 1020.8 1020.7 0.2
29/09:00pm 12.3 8.1 1.6 48 4.6 W 13 - 7 - 1020.8 1020.7 0.2
29/08:30pm 13.0 7.9 1.0 44 5.1 WSW 17 - 9 - 1020.4 1020.3 0.2
29/08:00pm 13.3 9.0 1.0 43 5.2 WSW 13 - 7 - 1020.1 1020.0 0.2
29/07:30pm 13.5 9.7 1.8 45 5.1 SW 11 - 6 - 1019.4 1019.4 0.2
29/07:00pm 13.4 10.7 5.6 59 3.7 W 9 - 5 - 1019.2 1019.2 0.2
29/06:30pm 14.3 12.0 4.6 52 4.5 W 6 - 3 - 1018.7 1018.7 0.2
29/06:00pm 15.0 12.9 1.5 40 5.9 S 2 - 1 - 1018.3 1018.3 0.2
29/05:30pm 14.9 12.5 4.3 49 4.9 N 6 - 3 - 1017.9 1017.9 0.2
29/05:00pm 15.3 12.5 2.1 41 5.8 N 6 - 3 - 1017.5 1017.5 0.2
29/04:30pm 16.4 13.2 0.5 34 6.9 NW 7 - 4 - 1017.1 1017.1 0.2
29/04:00pm 16.9 13.6 0.1 32 7.2 WNW 7 - 4 - 1016.8 1016.8 0.2
29/03:30pm 18.2 14.0 -0.6 28 8.1 W 11 - 6 - 1016.6 1016.6 0.2
29/03:00pm 18.7 13.9 0.3 29 8.1 W 15 - 8 - 1016.5 1016.5 0.2
29/02:30pm 18.8 14.8 0.4 29 8.1 WSW 11 - 6 - 1016.3 1016.3 0.2
29/02:00pm 19.1 14.9 1.6 31 7.9 W 13 - 7 - 1016.3 1016.3 0.2
29/01:30pm 18.1 12.9 0.3 30 7.8 WSW 17 - 9 - 1016.2 1016.2 0.2
29/01:00pm 17.8 12.9 1.7 34 7.2 WSW 17 - 9 - 1016.2 1016.2 0.0
29/12:30pm 17.2 11.7 2.0 36 6.8 W 20 - 11 - 1016.4 1016.4 0.0
29/12:00pm 15.7 10.6 2.8 42 5.8 W 19 - 10 - 1016.5 1016.5 0.0
29/11:30am 14.9 9.7 3.4 46 5.2 W 20 - 11 - 1016.7 1016.7 0.0
29/11:00am 14.1 8.5 3.6 49 4.8 W 22 - 12 - 1017.2 1017.2 0.0
29/10:30am 13.4 8.1 3.2 50 4.6 W 20 - 11 - 1017.5 1017.5 0.0
29/10:00am 12.7 7.5 3.6 54 4.1 W 20 - 11 - 1017.5 1017.5 0.0
29/09:30am 11.7 6.7 3.7 58 3.6 W 19 - 10 - 1017.4 1017.4 0.0
29/09:00am 11.0 6.3 3.3 59 3.4 W 17 - 9 - 1017.2 1017.2 2.2
29/08:30am 10.7 6.3 2.8 58 3.4 W 15 - 8 - 1016.9 1016.9 2.2
29/08:00am 9.9 6.6 2.7 61 3.1 WNW 9 - 5 - 1016.8 1016.8 2.2
29/07:30am 9.8 5.3 2.4 60 3.1 W 15 - 8 - 1016.3 1016.3 2.2
29/07:00am 9.2 4.4 2.5 63 2.8 W 17 - 9 - 1015.9 1015.9 2.2
29/06:30am 9.7 5.6 2.3 60 3.1 W 13 - 7 - 1015.5 1015.5 2.2
29/06:00am 9.8 5.3 2.4 60 3.1 W 15 - 8 - 1015.4 1015.4 2.2
29/05:30am 9.8 5.8 2.6 61 3.1 W 13 - 7 - 1015.1 1015.1 2.2
29/05:00am 10.0 6.0 2.8 61 3.1 W 13 - 7 - 1014.6 1014.6 2.2
29/04:30am 10.1 4.9 2.5 59 3.2 W 19 - 10 - 1014.2 1014.2 2.2
29/04:00am 10.6 5.8 2.7 58 3.4 WSW 17 - 9 - 1013.9 1013.9 2.2
29/03:30am 10.7 5.5 3.3 60 3.2 WSW 20 - 11 - 1013.7 1013.7 2.2
29/03:00am 10.8 5.5 3.1 59 3.4 WSW 20 - 11 - 1013.5 1013.5 2.2
29/02:30am 11.0 5.4 3.3 59 3.4 W 22 - 12 - 1013.4 1013.4 2.2
29/02:00am 10.9 4.9 3.5 60 3.3 WSW 24 - 13 - 1013.4 1013.4 2.2
29/01:30am 11.0 5.0 3.5 60 3.3 W 24 - 13 - 1013.2 1013.2 2.2
29/01:00am 11.2 5.2 3.5 59 3.4 W 24 - 13 - 1013.1 1013.1 2.2
29/12:30am 11.2 5.2 3.5 59 3.4 W 24 - 13 - 1012.8 1012.8 2.2
29/12:00am 11.6 5.7 3.9 59 3.4 W 24 - 13 - 1012.7 1012.7 2.2
 
Date/Time
EST
Temp
°C
App
Temp
°C
Dew
Point
Rel
Hum
%
Delta-T
°C
Wind Press
QNH
hPa
Press
MSL
hPa
Rain
since 9 am
mm
Dir
 
Spd
km/h
Gust
km/h
Spd
kts
Gust
kts
28/11:30pm 11.5 6.6 4.0 60 3.4 WNW 19 - 10 - 1012.6 1012.6 2.2
28/11:00pm 11.8 7.0 4.5 61 3.3 W 19 - 10 - 1012.5 1012.5 2.2
28/10:30pm 12.0 7.0 4.7 61 3.3 W 20 - 11 - 1012.2 1012.2 2.2
28/10:00pm 12.2 7.3 4.9 61 3.4 W 20 - 11 - 1012.1 1012.1 2.2
28/09:30pm 12.5 7.6 5.0 60 3.5 W 20 - 11 - 1011.6 1011.6 2.2
28/09:00pm 12.8 6.7 5.0 59 3.6 W 26 - 14 - 1011.2 1011.2 2.2
28/08:30pm 12.8 6.7 5.0 59 3.6 W 26 - 14 - 1010.9 1010.9 2.2
28/08:00pm 13.0 7.4 5.2 59 3.6 W 24 - 13 - 1010.7 1010.7 2.2
28/07:30pm 13.0 8.1 4.9 58 3.7 W 20 - 11 - 1010.3 1010.3 2.2
28/07:00pm 12.9 8.5 4.6 57 3.8 W 17 - 9 - 1010.0 1010.0 2.2
28/06:30pm 13.2 8.8 4.9 57 3.8 W 17 - 9 - 1009.7 1009.7 2.2
28/06:00pm 13.6 9.2 4.7 55 4.1 WSW 17 - 9 - 1009.2 1009.2 2.2
28/05:30pm 14.0 9.2 4.9 54 4.2 WSW 19 - 10 - 1008.6 1008.6 2.2
28/05:00pm 14.4 9.1 5.2 54 4.3 WSW 22 - 12 - 1007.8 1007.8 2.2
28/04:30pm 14.3 9.8 6.9 61 3.6 W 20 - 11 - 1007.3 1007.3 2.2
28/04:00pm 14.5 10.6 7.1 61 3.6 WSW 17 - 9 - 1006.9 1006.9 2.2
28/03:30pm 14.6 11.7 8.1 65 3.3 W 13 - 7 - 1006.5 1006.4 2.2
28/03:00pm 14.3 11.6 8.9 70 2.8 W 13 - 7 - 1006.1 1006.0 2.2
28/02:30pm 12.5 9.9 9.3 81 1.6 W 13 - 7 - 1005.9 1005.8 2.2
28/02:00pm 12.0 9.8 9.4 84 1.3 W 11 - 6 - 1005.9 1005.8 2.2
28/01:30pm 11.6 8.9 8.8 83 1.4 W 13 - 7 - 1005.8 1005.7 2.2
28/01:00pm 11.5 8.3 8.5 82 1.5 W 15 - 8 - 1006.0 1005.9 2.2
28/12:30pm 11.5 8.2 8.2 80 1.6 WSW 15 - 8 - 1006.0 1005.9 2.0
28/12:00pm 11.4 8.1 8.1 80 1.6 WSW 15 - 8 - 1006.0 1005.9 2.0
28/11:30am 11.5 7.8 8.0 79 1.7 WSW 17 - 9 - 1006.3 1006.2 1.8
28/11:00am 11.5 8.7 8.7 83 1.4 WNW 13 - 7 - 1006.6 1006.5 1.0
28/10:30am 12.0 8.3 7.9 76 2.0 WNW 17 - 9 - 1007.0 1007.0 0.2
28/10:00am 12.7 9.9 7.0 68 2.8 WNW 11 - 6 - 1007.1 1007.1 0.0
28/09:30am 12.6 9.3 6.6 67 2.9 NW 13 - 7 - 1007.2 1007.2 0.0
28/09:00am 12.9 10.3 6.0 63 3.3 NNW 9 - 5 - 1007.2 1007.2 0.0
28/08:30am 12.3 10.5 5.5 63 3.2 W 4 - 2 - 1007.2 1007.2 0.0
28/08:00am 12.0 9.8 5.2 63 3.1 W 6 - 3 - 1007.1 1007.1 0.0
28/07:30am 11.6 8.8 5.0 64 3.0 W 9 - 5 - 1007.1 1007.1 0.0
28/07:00am 10.8 8.3 4.7 66 2.8 W 7 - 4 - 1007.0 1007.0 0.0
28/06:30am 11.2 8.7 4.7 64 2.9 WNW 7 - 4 - 1006.9 1006.9 0.0
28/06:00am 10.9 8.9 4.4 64 2.9 NW 4 - 2 - 1006.6 1006.5 0.0
28/05:30am 10.5 7.9 4.0 64 2.9 NW 7 - 4 - 1006.7 1006.7 0.0
28/05:00am 10.5 7.4 3.8 63 3.0 W 9 - 5 - 1007.0 1007.0 0.0
28/04:30am 10.5 7.4 3.5 62 3.1 WSW 9 - 5 - 1006.9 1006.9 0.0
28/04:00am 10.5 7.5 4.0 64 2.9 WNW 9 - 5 - 1006.7 1006.7 0.0
28/03:30am 10.1 7.0 3.6 64 2.8 W 9 - 5 - 1006.9 1006.9 0.0
28/03:00am 9.9 7.1 3.0 62 3.0 W 7 - 4 - 1006.9 1006.9 0.0
28/02:30am 10.6 7.7 2.7 58 3.4 WNW 7 - 4 - 1007.4 1007.4 0.0
28/02:00am 11.4 8.7 2.9 56 3.7 NW 6 - 3 - 1007.5 1007.5 0.0
28/01:30am 10.8 8.0 2.9 58 3.4 WNW 7 - 4 - 1007.5 1007.5 0.0
28/01:00am 11.3 7.9 2.1 53 3.9 WNW 9 - 5 - 1007.5 1007.5 0.0
28/12:30am 11.8 8.4 1.7 50 4.3 NW 9 - 5 - 1007.6 1007.6 0.0
28/12:00am 12.1 7.5 1.7 49 4.5 W 15 - 8 - 1007.5 1007.5 0.0
 
Date/Time
EST
Temp
°C
App
Temp
°C
Dew
Point
Rel
Hum
%
Delta-T
°C
Wind Press
QNH
hPa
Press
MSL
hPa
Rain
since 9 am
mm
Dir
 
Spd
km/h
Gust
km/h
Spd
kts
Gust
kts
27/11:30pm 12.2 8.0 1.8 49 4.5 WNW 13 - 7 - 1007.6 1007.6 0.0
27/11:00pm 12.5 7.1 1.5 47 4.7 W 19 - 10 - 1007.5 1007.5 0.0
27/10:30pm 12.4 7.7 1.1 46 4.8 WNW 15 - 8 - 1007.5 1007.5 0.0
27/10:00pm 12.8 7.8 1.5 46 4.9 W 17 - 9 - 1007.4 1007.4 0.0
27/09:30pm 13.2 7.2 1.2 44 5.1 W 22 - 12 - 1007.3 1007.3 0.0
27/09:00pm 13.5 7.5 1.2 43 5.3 W 22 - 12 - 1007.1 1007.1 0.0

Other Formats:

Comma delimited format used in spreadsheet applications
http://www.bom.gov.au/fwo/IDN60801/IDN60801.94768.axf

JavaScript Object Notation format (JSON) in row-major order
http://www.bom.gov.au/fwo/IDN60801/IDN60801.94768.json